Time;durP1;ratioP1;P1;durP2;ratioP2;P2;SDS_P1;SDS_P2;PMS_P1;PMS_P2;Temp;Humidity;BMP_temperature;BMP_pressure;BME280_temperature;BME280_humidity;BME280_pressure;Samples;Min_cycle;Max_cycle;Signal;HPM_P1;HPM_P2
2020/12/21 00:01:37;;;;;;;11.45;4.32;;;6.10;99.90;;;;;;5113097;28;20039;-80
2020/12/21 00:04:03;;;;;;;7.78;3.70;;;5.90;99.90;;;;;;5112480;28;20093;-80
2020/12/21 00:06:29;;;;;;;8.65;4.43;;;6.10;99.90;;;;;;5112843;28;20054;-80
2020/12/21 00:08:55;;;;;;;8.88;3.63;;;6.20;99.90;;;;;;5111908;28;20126;-80
2020/12/21 00:11:20;;;;;;;8.43;3.95;;;6.10;99.90;;;;;;5113522;28;20035;-80
2020/12/21 00:13:46;;;;;;;9.65;3.92;;;6.20;99.90;;;;;;5112096;28;20579;-80
2020/12/21 00:16:12;;;;;;;12.85;4.30;;;6.20;99.90;;;;;;5112601;28;20040;-80
2020/12/21 00:18:38;;;;;;;11.45;3.95;;;6.10;99.90;;;;;;5113788;28;20052;-80
2020/12/21 00:21:04;;;;;;;13.05;3.97;;;6.10;99.90;;;;;;5112459;28;20508;-80
2020/12/21 00:23:30;;;;;;;13.68;4.50;;;6.20;99.90;;;;;;5113789;27;20089;-81
2020/12/21 00:25:56;;;;;;;12.60;4.10;;;6.10;99.90;;;;;;5113157;28;20039;-80
2020/12/21 00:28:21;;;;;;;10.65;4.05;;;6.30;99.90;;;;;;5112038;28;20039;-81
2020/12/21 00:30:47;;;;;;;10.98;4.30;;;6.20;99.90;;;;;;5112786;28;20063;-81
2020/12/21 00:33:13;;;;;;;21.35;5.30;;;6.20;99.90;;;;;;5113508;28;20125;-80
2020/12/21 00:35:41;;;;;;;14.18;4.63;;;6.20;99.90;;;;;;5112238;28;20096;-81
2020/12/21 00:38:07;;;;;;;12.02;4.43;;;6.20;99.90;;;;;;5110608;28;20362;-81
2020/12/21 00:40:33;;;;;;;17.75;4.53;;;6.20;99.90;;;;;;5111258;28;20097;-80
2020/12/21 00:42:59;;;;;;;8.95;4.15;;;;;;;;;;5113165;28;20043;-80
2020/12/21 00:45:24;;;;;;;11.02;4.30;;;6.10;99.90;;;;;;5112250;28;20525;-81
2020/12/21 00:47:50;;;;;;;10.00;4.32;;;6.10;99.90;;;;;;5113568;28;20293;-81
2020/12/21 00:50:16;;;;;;;11.40;4.28;;;6.20;99.90;;;;;;5110905;28;20045;-81
2020/12/21 00:52:41;;;;;;;13.65;4.43;;;6.10;99.90;;;;;;5111760;28;20049;-80
2020/12/21 00:55:08;;;;;;;13.07;4.60;;;6.10;99.90;;;;;;5113101;27;20095;-80
2020/12/21 00:57:34;;;;;;;9.70;4.35;;;;;;;;;;5111763;28;20046;-80
2020/12/21 01:00:00;;;;;;;12.07;4.07;;;6.20;99.90;;;;;;5110617;28;20091;-80
2020/12/21 01:02:26;;;;;;;8.55;4.00;;;6.20;99.90;;;;;;5112699;28;20104;-80
2020/12/21 01:04:52;;;;;;;12.52;3.55;;;;;;;;;;5112401;28;20052;-80
2020/12/21 01:07:17;;;;;;;14.50;4.43;;;6.20;99.90;;;;;;5114401;28;20072;-81
2020/12/21 01:09:46;;;;;;;13.68;3.72;;;6.10;99.90;;;;;;5114307;28;20031;-80
2020/12/21 01:12:13;;;;;;;7.55;3.83;;;;;;;;;;5116004;28;20115;-80
2020/12/21 01:14:38;;;;;;;12.27;4.65;;;6.10;99.90;;;;;;5116052;28;20062;-81
2020/12/21 01:17:04;;;;;;;14.57;3.97;;;6.10;99.90;;;;;;5115449;28;20480;-81
2020/12/21 01:19:29;;;;;;;10.73;3.72;;;6.10;99.90;;;;;;5114228;28;20047;-80
2020/12/21 01:21:56;;;;;;;11.98;4.18;;;6.10;99.90;;;;;;5116042;28;20397;-80
2020/12/21 01:24:22;;;;;;;10.13;3.20;;;6.10;99.90;;;;;;5114952;28;20129;-81
2020/12/21 01:26:48;;;;;;;10.43;3.75;;;6.20;99.90;;;;;;5115097;28;20480;-80
2020/12/21 01:29:14;;;;;;;10.07;3.20;;;6.20;99.90;;;;;;5114154;28;20097;-80
2020/12/21 01:31:40;;;;;;;10.63;4.10;;;6.20;99.90;;;;;;5114727;28;20047;-80
2020/12/21 01:34:05;;;;;;;18.35;4.78;;;6.20;99.90;;;;;;5115001;28;20044;-80
2020/12/21 01:36:31;;;;;;;8.45;3.90;;;6.10;99.90;;;;;;5123302;28;20054;-81
2020/12/21 01:38:57;;;;;;;9.75;3.53;;;6.20;99.90;;;;;;5116751;28;20047;-80
2020/12/21 01:41:22;;;;;;;13.20;4.13;;;6.10;99.90;;;;;;5115417;28;20550;-80
2020/12/21 01:43:48;;;;;;;13.48;3.55;;;6.10;99.90;;;;;;5116903;28;20043;-80
2020/12/21 01:46:16;;;;;;;14.05;4.05;;;6.10;99.90;;;;;;5114653;28;20051;-80
2020/12/21 01:48:43;;;;;;;11.90;3.85;;;6.10;99.90;;;;;;5114049;28;20131;-81
2020/12/21 01:51:13;;;;;;;13.45;3.42;;;6.10;99.90;;;;;;5114234;28;20077;-81
2020/12/21 01:53:39;;;;;;;10.85;3.17;;;6.00;99.90;;;;;;5115610;28;20067;-80
2020/12/21 01:56:05;;;;;;;14.57;5.00;;;6.00;99.90;;;;;;5116568;28;20047;-81
2020/12/21 01:58:31;;;;;;;9.77;3.65;;;5.90;99.90;;;;;;5113852;28;20039;-80
2020/12/21 02:00:58;;;;;;;11.63;3.90;;;5.80;99.90;;;;;;5114428;28;20040;-80
2020/12/21 02:03:24;;;;;;;8.98;3.20;;;5.90;99.90;;;;;;5115460;28;20481;-80
2020/12/21 02:05:50;;;;;;;9.68;3.17;;;5.80;99.90;;;;;;5114381;28;20046;-80
2020/12/21 02:08:16;;;;;;;9.18;4.03;;;5.90;99.90;;;;;;5114081;28;20039;-80
2020/12/21 02:10:41;;;;;;;10.43;3.60;;;5.90;99.90;;;;;;5114394;28;20104;-80
2020/12/21 02:13:07;;;;;;;12.77;3.83;;;5.90;99.90;;;;;;5114039;28;20054;-80
2020/12/21 02:15:32;;;;;;;11.63;3.72;;;5.90;99.90;;;;;;5113964;28;20499;-80
2020/12/21 02:17:58;;;;;;;9.68;3.20;;;5.90;99.90;;;;;;5114150;28;20048;-80
2020/12/21 02:20:28;;;;;;;8.60;3.22;;;6.00;99.90;;;;;;5113341;28;20375;-80
2020/12/21 02:22:53;;;;;;;12.43;3.20;;;5.90;99.90;;;;;;5113711;28;20408;-81
2020/12/21 02:25:19;;;;;;;13.93;3.33;;;5.80;99.90;;;;;;5113610;28;20042;-81
2020/12/21 02:27:45;;;;;;;11.65;3.75;;;5.80;99.90;;;;;;5115200;28;20524;-80
2020/12/21 02:30:11;;;;;;;7.63;3.30;;;5.80;99.90;;;;;;5114115;28;20038;-80
2020/12/21 02:32:36;;;;;;;11.93;3.35;;;5.80;99.90;;;;;;5113339;28;20035;-80
2020/12/21 02:35:02;;;;;;;9.05;3.35;;;5.80;99.90;;;;;;5114817;28;20527;-80
2020/12/21 02:37:29;;;;;;;9.10;3.22;;;5.90;99.90;;;;;;5113599;28;20032;-80
2020/12/21 02:39:54;;;;;;;12.85;3.33;;;5.90;99.90;;;;;;5112880;28;20081;-80
2020/12/21 02:42:20;;;;;;;12.18;3.20;;;5.90;99.90;;;;;;5112628;28;20047;-80
2020/12/21 02:44:45;;;;;;;10.32;3.00;;;5.80;99.90;;;;;;5113681;28;20139;-80
2020/12/21 02:47:11;;;;;;;9.98;3.28;;;;;;;;;;5113349;28;20043;-80
2020/12/21 02:49:37;;;;;;;13.73;3.97;;;5.80;99.90;;;;;;5113040;28;20036;-80
2020/12/21 02:52:03;;;;;;;14.27;3.28;;;5.80;99.90;;;;;;5113434;28;20058;-80
2020/12/21 02:54:29;;;;;;;13.15;3.20;;;;;;;;;;5113570;28;20158;-80
2020/12/21 02:56:55;;;;;;;8.35;2.78;;;5.80;99.90;;;;;;5113165;28;20101;-80
2020/12/21 02:59:21;;;;;;;11.00;2.92;;;5.80;99.90;;;;;;5112830;28;20044;-80
2020/12/21 03:01:47;;;;;;;9.98;3.15;;;;;;;;;;5112580;28;20031;-80
2020/12/21 03:04:12;;;;;;;7.07;2.58;;;5.80;99.90;;;;;;5113571;28;20404;-80
2020/12/21 03:06:38;;;;;;;7.65;2.58;;;;;;;;;;5113495;28;20036;-80
2020/12/21 03:09:04;;;;;;;8.82;3.03;;;5.70;99.90;;;;;;5114111;28;20032;-81
2020/12/21 03:11:31;;;;;;;9.25;2.75;;;5.70;99.90;;;;;;5113172;28;20583;-80
2020/12/21 03:13:56;;;;;;;9.60;3.08;;;5.70;99.90;;;;;;5114207;28;20043;-81
2020/12/21 03:16:23;;;;;;;10.25;3.10;;;;;;;;;;5112762;28;20036;-81
2020/12/21 03:18:49;;;;;;;12.88;3.08;;;5.60;99.90;;;;;;5113856;28;20027;-81
2020/12/21 03:21:14;;;;;;;16.38;3.00;;;5.60;99.90;;;;;;5112847;28;20112;-80
2020/12/21 03:23:40;;;;;;;6.43;2.33;;;5.60;99.90;;;;;;5113448;28;20075;-80
2020/12/21 03:26:07;;;;;;;10.52;2.60;;;5.60;99.90;;;;;;5113923;28;20043;-81
2020/12/21 03:28:33;;;;;;;11.88;3.33;;;5.70;99.90;;;;;;5115891;28;20040;-81
2020/12/21 03:30:59;;;;;;;9.73;2.95;;;;;;;;;;5124210;28;20027;-81
2020/12/21 03:33:25;;;;;;;14.70;2.88;;;5.80;99.90;;;;;;5120298;28;20507;-80
2020/12/21 03:35:51;;;;;;;9.25;2.42;;;;;;;;;;5112883;28;20078;-80
2020/12/21 03:38:16;;;;;;;13.68;3.13;;;5.80;99.90;;;;;;5113182;28;20481;-80
2020/12/21 03:40:42;;;;;;;10.05;2.55;;;;;;;;;;5112403;28;20043;-81
2020/12/21 03:43:08;;;;;;;10.25;2.78;;;5.80;99.90;;;;;;5112790;28;20096;-81
2020/12/21 03:45:35;;;;;;;3.63;1.63;;;;;;;;;;5112808;28;20046;-80
2020/12/21 03:48:00;;;;;;;8.50;1.67;;;;;;;;;;5112859;28;20079;-80
2020/12/21 03:50:29;;;;;;;6.75;2.00;;;5.90;99.90;;;;;;5112165;28;20417;-80
2020/12/21 03:52:54;;;;;;;7.47;2.45;;;5.80;99.90;;;;;;5112627;28;20402;-80
2020/12/21 03:55:20;;;;;;;12.88;2.65;;;5.80;99.90;;;;;;5112874;28;20138;-80
2020/12/21 03:57:46;;;;;;;5.85;2.08;;;5.80;99.90;;;;;;5112805;28;20039;-80
2020/12/21 04:00:11;;;;;;;10.55;2.63;;;5.80;99.90;;;;;;5112510;28;20043;-80
2020/12/21 04:02:38;;;;;;;12.35;2.58;;;5.80;99.90;;;;;;5114086;28;20057;-81
2020/12/21 04:05:04;;;;;;;12.68;2.33;;;5.80;99.90;;;;;;5114776;28;20048;-80
2020/12/21 04:07:30;;;;;;;10.82;2.58;;;5.80;99.90;;;;;;5112926;28;20044;-80
2020/12/21 04:09:56;;;;;;;8.40;2.50;;;;;;;;;;5112809;28;20097;-80
2020/12/21 04:12:22;;;;;;;8.85;2.47;;;5.60;99.90;;;;;;5114622;28;20039;-80
2020/12/21 04:14:47;;;;;;;5.57;2.03;;;5.60;99.90;;;;;;5116695;28;20048;-81
2020/12/21 04:17:13;;;;;;;10.63;2.22;;;5.60;99.90;;;;;;5116179;28;20042;-80
2020/12/21 04:19:40;;;;;;;8.32;2.17;;;5.60;99.90;;;;;;5115759;28;20505;-81
2020/12/21 04:22:05;;;;;;;6.70;2.13;;;5.60;99.90;;;;;;5117198;28;20067;-80
2020/12/21 04:24:31;;;;;;;8.20;2.17;;;5.50;99.90;;;;;;5118095;28;20504;-80
2020/12/21 04:26:56;;;;;;;10.05;2.33;;;5.50;99.90;;;;;;5116570;28;20130;-81
2020/12/21 04:29:22;;;;;;;11.05;3.00;;;;;;;;;;5117353;28;20116;-81
2020/12/21 04:31:52;;;;;;;14.73;2.20;;;5.40;99.90;;;;;;5115921;28;20134;-81
2020/12/21 04:34:18;;;;;;;12.70;2.03;;;5.40;99.90;;;;;;5117454;27;20046;-80
2020/12/21 04:36:44;;;;;;;10.02;3.08;;;5.50;99.90;;;;;;5117941;28;20039;-80
2020/12/21 04:39:10;;;;;;;11.88;2.50;;;;;;;;;;5115858;28;20372;-81
2020/12/21 04:41:36;;;;;;;7.57;2.15;;;5.60;99.90;;;;;;5116303;28;20040;-80
2020/12/21 04:44:02;;;;;;;6.85;2.50;;;;;;;;;;5115965;28;20031;-80
2020/12/21 04:46:28;;;;;;;11.20;2.15;;;5.60;99.90;;;;;;5116511;28;20558;-80
2020/12/21 04:48:58;;;;;;;9.57;2.30;;;5.50;99.90;;;;;;5116613;28;20039;-81
2020/12/21 04:51:33;;;;;;;9.70;2.42;;;5.40;99.90;;;;;;5116187;28;20035;-81
2020/12/21 04:53:59;;;;;;;8.45;2.70;;;5.40;99.90;;;;;;5116132;28;20100;-81
2020/12/21 04:56:25;;;;;;;5.63;2.38;;;5.50;99.90;;;;;;5116883;28;20378;-81
2020/12/21 04:58:50;;;;;;;6.68;2.45;;;5.50;99.90;;;;;;5118382;28;20043;-81
2020/12/21 05:01:16;;;;;;;9.63;2.30;;;5.50;99.90;;;;;;5120047;28;20134;-81
2020/12/21 05:03:48;;;;;;;8.85;2.55;;;5.50;99.90;;;;;;5125011;28;20122;-81
2020/12/21 05:06:14;;;;;;;13.70;2.47;;;5.50;99.90;;;;;;5117146;27;20046;-80
2020/12/21 05:08:39;;;;;;;11.70;2.30;;;5.50;99.90;;;;;;5115394;28;20099;-81
2020/12/21 05:11:06;;;;;;;6.95;2.33;;;5.50;99.90;;;;;;5115643;28;20512;-80
2020/12/21 05:13:34;;;;;;;7.75;2.25;;;5.50;99.90;;;;;;5115478;28;20044;-81
2020/12/21 05:16:00;;;;;;;10.98;2.42;;;5.50;99.90;;;;;;5115513;28;20035;-80
2020/12/21 05:18:29;;;;;;;6.30;2.10;;;5.50;99.90;;;;;;5115310;28;20040;-80
2020/12/21 05:20:56;;;;;;;9.50;2.15;;;5.60;99.90;;;;;;5114974;28;20096;-80
2020/12/21 05:23:21;;;;;;;5.85;2.00;;;5.60;99.90;;;;;;5115917;28;20399;-81
2020/12/21 05:25:57;;;;;;;8.75;2.22;;;5.60;99.90;;;;;;5116536;28;20039;-81
2020/12/21 05:28:27;;;;;;;9.80;2.22;;;5.50;99.90;;;;;;5115371;28;20036;-80
2020/12/21 05:30:55;;;;;;;6.10;2.03;;;5.60;99.90;;;;;;5114716;28;20046;-80
2020/12/21 05:33:21;;;;;;;11.70;2.47;;;5.50;99.90;;;;;;5116790;27;20043;-81
2020/12/21 05:35:47;;;;;;;11.90;2.38;;;5.60;99.90;;;;;;5115216;28;20038;-80
2020/12/21 05:38:25;;;;;;;8.80;2.47;;;5.60;99.90;;;;;;5116587;28;20048;-81
2020/12/21 05:40:52;;;;;;;7.07;1.85;;;5.60;99.90;;;;;;5115908;28;20505;-80
2020/12/21 05:43:24;;;;;;;4.75;2.00;;;5.60;99.90;;;;;;5116237;28;20043;-81
2020/12/21 05:46:01;;;;;;;8.00;2.35;;;5.60;99.90;;;;;;5116340;28;20097;-81
2020/12/21 05:48:30;;;;;;;8.95;1.52;;;5.60;99.90;;;;;;5115264;28;20093;-80
2020/12/21 05:50:56;;;;;;;9.57;2.35;;;;;;;;;;5115537;28;20043;-80
2020/12/21 05:53:23;;;;;;;9.85;2.05;;;5.70;99.90;;;;;;5114893;28;20050;-80
2020/12/21 05:55:49;;;;;;;7.80;2.13;;;5.50;99.90;;;;;;5115917;28;20078;-80
2020/12/21 05:58:15;;;;;;;8.20;2.17;;;5.50;99.90;;;;;;5115823;28;20036;-81
2020/12/21 06:00:42;;;;;;;10.52;2.00;;;5.50;99.90;;;;;;5115415;28;20423;-80
2020/12/21 06:03:08;;;;;;;9.23;1.83;;;;;;;;;;5114610;28;20050;-81
2020/12/21 06:05:37;;;;;;;5.10;1.92;;;5.50;99.90;;;;;;5114246;28;20447;-81
2020/12/21 06:08:03;;;;;;;8.60;2.22;;;5.50;99.90;;;;;;5114457;28;20409;-80
2020/12/21 06:10:36;;;;;;;10.57;2.03;;;5.50;99.90;;;;;;5115084;28;20040;-80
2020/12/21 06:13:02;;;;;;;10.75;2.58;;;5.50;99.90;;;;;;5114324;28;20078;-80
2020/12/21 06:15:28;;;;;;;7.88;2.03;;;5.40;99.90;;;;;;5114608;28;20039;-80
2020/12/21 06:17:55;;;;;;;8.88;2.20;;;5.50;99.90;;;;;;5117629;28;20035;-80
2020/12/21 06:20:21;;;;;;;4.68;1.88;;;;;;;;;;5114594;28;20126;-81
2020/12/21 06:22:47;;;;;;;6.28;1.65;;;5.60;99.90;;;;;;5117470;28;20035;-81
2020/12/21 06:25:20;;;;;;;7.05;1.63;;;5.60;99.90;;;;;;5115181;28;20061;-80
2020/12/21 06:27:46;;;;;;;6.57;2.15;;;5.60;99.90;;;;;;5114991;28;20471;-81
2020/12/21 06:30:13;;;;;;;11.02;2.35;;;5.60;99.90;;;;;;5116404;28;20067;-81
2020/12/21 06:32:39;;;;;;;11.10;2.25;;;5.60;99.90;;;;;;5115473;28;20431;-81
2020/12/21 06:35:18;;;;;;;11.57;1.80;;;5.70;99.90;;;;;;5115818;28;20049;-80
2020/12/21 06:37:56;;;;;;;6.22;1.80;;;5.60;99.90;;;;;;5116032;28;20493;-81
2020/12/21 06:40:30;;;;;;;8.80;2.00;;;5.50;99.90;;;;;;5113639;28;20377;-81
2020/12/21 06:43:07;;;;;;;4.57;1.73;;;5.60;99.90;;;;;;5117187;28;20043;-81
2020/12/21 06:45:34;;;;;;;4.70;1.70;;;5.50;99.90;;;;;;5116902;28;20118;-80
2020/12/21 06:47:59;;;;;;;9.85;2.25;;;5.60;99.90;;;;;;5114904;28;20130;-81
2020/12/21 06:50:26;;;;;;;4.47;1.77;;;5.50;99.90;;;;;;5114823;28;20073;-80
2020/12/21 06:52:51;;;;;;;10.50;1.80;;;5.50;99.90;;;;;;5116008;28;20047;-80
2020/12/21 06:55:17;;;;;;;8.95;2.05;;;5.60;99.90;;;;;;5114566;28;20050;-80
2020/12/21 06:57:50;;;;;;;5.93;1.90;;;5.60;99.90;;;;;;5113753;28;20043;-80
2020/12/21 07:00:19;;;;;;;9.45;2.22;;;5.60;99.90;;;;;;5114149;28;20040;-80
2020/12/21 07:02:46;;;;;;;5.50;1.90;;;5.60;99.90;;;;;;5114822;28;20098;-81
2020/12/21 07:05:12;;;;;;;8.25;1.85;;;;;;;;;;5113747;28;20131;-81
2020/12/21 07:07:39;;;;;;;7.10;1.88;;;5.60;99.90;;;;;;5114197;28;20063;-80
2020/12/21 07:10:11;;;;;;;5.78;1.55;;;5.70;99.90;;;;;;5114378;28;20032;-80
2020/12/21 07:12:36;;;;;;;5.55;1.25;;;5.70;99.90;;;;;;5114010;28;20078;-80
2020/12/21 07:15:04;;;;;;;10.10;1.70;;;5.80;99.90;;;;;;5115089;28;20147;-80
2020/12/21 07:17:31;;;;;;;7.07;1.88;;;;;;;;;;5113252;28;20035;-80
2020/12/21 07:19:58;;;;;;;7.47;1.42;;;5.80;99.90;;;;;;5113481;28;20032;-80
2020/12/21 07:22:25;;;;;;;6.55;1.58;;;5.80;99.90;;;;;;5114289;28;20389;-81
2020/12/21 07:24:52;;;;;;;6.97;1.50;;;;;;;;;;5114398;28;20403;-80
2020/12/21 07:27:18;;;;;;;6.25;1.50;;;5.90;99.90;;;;;;5112677;28;20051;-80
2020/12/21 07:29:43;;;;;;;5.45;2.03;;;5.90;99.90;;;;;;5112275;28;20046;-80
2020/12/21 07:32:09;;;;;;;7.38;1.73;;;5.80;99.90;;;;;;5112853;28;20074;-80
2020/12/21 07:34:36;;;;;;;7.35;1.85;;;5.90;99.90;;;;;;5113050;28;20049;-80
2020/12/21 07:37:07;;;;;;;8.68;1.90;;;5.90;99.90;;;;;;5114140;28;20039;-80
2020/12/21 07:39:33;;;;;;;5.85;1.85;;;5.90;99.90;;;;;;5112484;28;20069;-80
2020/12/21 07:42:03;;;;;;;3.97;1.30;;;6.00;99.90;;;;;;5114639;28;20044;-80
2020/12/21 07:44:31;;;;;;;7.20;1.65;;;5.90;99.90;;;;;;5113739;28;20043;-80
2020/12/21 07:47:01;;;;;;;6.97;1.55;;;6.00;99.90;;;;;;5114928;28;20543;-80
2020/12/21 07:49:30;;;;;;;6.38;1.48;;;6.00;99.90;;;;;;5120232;28;20047;-81
2020/12/21 07:51:58;;;;;;;6.05;1.80;;;6.00;99.90;;;;;;5119667;28;20050;-80
2020/12/21 07:54:24;;;;;;;4.43;1.17;;;6.00;99.90;;;;;;5119948;28;20033;-80
2020/12/21 07:56:59;;;;;;;4.72;1.45;;;6.00;99.90;;;;;;5116574;28;20477;-80
2020/12/21 07:59:25;;;;;;;5.78;1.63;;;6.00;99.90;;;;;;5117767;28;20104;-80
2020/12/21 08:01:56;;;;;;;5.57;1.83;;;6.10;99.90;;;;;;5116838;28;20552;-80
2020/12/21 08:04:22;;;;;;;8.32;3.70;;;6.10;99.90;;;;;;5116746;28;20074;-80
2020/12/21 08:06:48;;;;;;;8.20;2.85;;;6.10;99.90;;;;;;5116717;28;20071;-80
2020/12/21 08:09:14;;;;;;;11.00;3.35;;;;;;;;;;5116217;28;20074;-80
2020/12/21 08:11:40;;;;;;;9.02;3.13;;;6.00;99.90;;;;;;5116366;28;20032;-80
2020/12/21 08:14:08;;;;;;;13.50;5.30;;;6.10;99.90;;;;;;5116382;28;20092;-80
2020/12/21 08:16:34;;;;;;;4.55;1.75;;;6.00;99.90;;;;;;5117600;28;20108;-80
2020/12/21 08:19:01;;;;;;;9.25;2.42;;;;;;;;;;5115897;28;20043;-80
2020/12/21 08:21:27;;;;;;;7.78;2.17;;;5.90;99.90;;;;;;5116011;28;20609;-80
2020/12/21 08:23:55;;;;;;;13.13;2.92;;;5.90;99.90;;;;;;5116110;28;20039;-80
2020/12/21 08:26:21;;;;;;;9.57;2.17;;;5.80;99.90;;;;;;5116308;28;20039;-80
2020/12/21 08:28:49;;;;;;;13.02;3.25;;;5.80;99.90;;;;;;5115875;28;20047;-80
2020/12/21 08:31:20;;;;;;;6.60;2.85;;;5.70;99.90;;;;;;5116032;28;20046;-80
2020/12/21 08:33:58;;;;;;;8.65;2.72;;;5.70;99.90;;;;;;5116517;28;20577;-80
2020/12/21 08:36:25;;;;;;;9.48;3.35;;;5.70;99.90;;;;;;5115903;28;20078;-80
2020/12/21 08:38:52;;;;;;;11.10;3.00;;;5.70;99.90;;;;;;5116597;28;20114;-80
2020/12/21 08:41:19;;;;;;;7.95;3.05;;;5.70;99.90;;;;;;5115938;28;20040;-80
2020/12/21 08:43:45;;;;;;;6.45;2.47;;;5.70;99.90;;;;;;5116082;28;20036;-80
2020/12/21 08:46:13;;;;;;;5.38;2.40;;;5.70;99.90;;;;;;5115619;28;20047;-80
2020/12/21 08:48:40;;;;;;;5.18;2.65;;;;;;;;;;5115560;28;20428;-80
2020/12/21 08:51:06;;;;;;;7.30;2.63;;;;;;;;;;5115574;28;20183;-80
2020/12/21 08:53:32;;;;;;;3.80;1.60;;;;;;;;;;5116732;28;20431;-80
2020/12/21 08:55:58;;;;;;;13.13;3.22;;;5.70;99.90;;;;;;5115320;28;20134;-80
2020/12/21 08:58:24;;;;;;;13.68;3.03;;;5.70;99.90;;;;;;5114301;28;20494;-80
2020/12/21 09:00:50;;;;;;;8.52;2.42;;;;;;;;;;5116142;28;20481;-80
2020/12/21 09:03:16;;;;;;;6.78;2.95;;;;;;;;;;5115596;28;20079;-80
2020/12/21 09:05:42;;;;;;;9.48;2.88;;;5.60;99.90;;;;;;5115450;28;20047;-80
2020/12/21 09:08:08;;;;;;;10.55;2.97;;;5.70;99.90;;;;;;5116427;28;20122;-80
2020/12/21 09:10:33;;;;;;;2.90;1.13;;;5.70;99.90;;;;;;5116074;28;20078;-80
2020/12/21 09:13:00;;;;;;;10.52;2.03;;;;;;;;;;5116463;28;20066;-79
2020/12/21 09:15:25;;;;;;;3.05;1.23;;;5.80;99.90;;;;;;5115080;28;20533;-80
2020/12/21 09:17:51;;;;;;;5.28;1.67;;;;;;;;;;5116550;28;20035;-80
2020/12/21 09:20:17;;;;;;;8.95;2.38;;;5.90;99.90;;;;;;5114393;28;20043;-80
2020/12/21 09:22:43;;;;;;;8.05;2.75;;;6.00;99.90;;;;;;5114784;28;20035;-80
2020/12/21 09:25:09;;;;;;;5.30;2.35;;;6.10;99.90;;;;;;5114870;28;20043;-79
2020/12/21 09:27:35;;;;;;;9.77;3.22;;;6.10;99.90;;;;;;5114537;28;20085;-79
2020/12/21 09:30:00;;;;;;;5.60;2.05;;;6.30;99.90;;;;;;5114269;28;20047;-79
2020/12/21 09:32:26;;;;;;;8.38;2.97;;;6.20;99.90;;;;;;5114809;28;20073;-79
2020/12/21 09:34:51;;;;;;;6.97;2.85;;;6.40;99.90;;;;;;5115014;28;20127;-80
2020/12/21 09:37:17;;;;;;;7.13;2.17;;;6.40;99.90;;;;;;5115916;28;20040;-79
2020/12/21 09:39:43;;;;;;;10.15;2.83;;;6.60;99.90;;;;;;5114211;28;20477;-80
2020/12/21 09:42:09;;;;;;;8.23;2.80;;;6.70;99.90;;;;;;5114838;28;20044;-79
2020/12/21 09:44:35;;;;;;;9.15;3.15;;;6.70;99.90;;;;;;5115866;28;20710;-79
2020/12/21 09:47:01;;;;;;;5.47;2.70;;;;;;;;;;5115057;28;20126;-79
2020/12/21 09:49:26;;;;;;;7.25;3.05;;;6.90;99.90;;;;;;5113652;28;20556;-79
2020/12/21 09:51:52;;;;;;;4.82;2.15;;;7.00;99.90;;;;;;5114499;28;20082;-80
2020/12/21 09:54:18;;;;;;;8.20;2.92;;;6.90;99.90;;;;;;5115651;28;20086;-80
2020/12/21 09:56:46;;;;;;;11.65;2.88;;;7.00;99.90;;;;;;5114196;28;20063;-79
2020/12/21 09:59:12;;;;;;;3.78;1.33;;;7.20;99.90;;;;;;5114747;28;20577;-79
2020/12/21 10:01:38;;;;;;;7.10;2.70;;;7.10;99.90;;;;;;5115455;28;20043;-79
2020/12/21 10:04:03;;;;;;;6.15;2.20;;;7.20;99.90;;;;;;5111340;28;20092;-80
2020/12/21 10:06:29;;;;;;;7.55;2.60;;;7.20;99.90;;;;;;5112082;28;20074;-79
2020/12/21 10:08:54;;;;;;;8.35;2.80;;;7.30;99.90;;;;;;5110722;28;20066;-81
2020/12/21 10:11:20;;;;;;;13.02;3.10;;;7.40;99.90;;;;;;5112033;28;20544;-80
2020/12/21 10:13:48;;;;;;;3.80;1.75;;;;;;;;;;5111151;28;20512;-79
2020/12/21 10:16:13;;;;;;;5.10;1.67;;;7.40;99.90;;;;;;5110761;28;20073;-80
2020/12/21 10:18:39;;;;;;;5.90;2.35;;;7.50;99.90;;;;;;5111119;28;20075;-79
2020/12/21 10:21:06;;;;;;;7.40;2.20;;;7.60;99.90;;;;;;5112411;28;20532;-79
2020/12/21 10:23:31;;;;;;;5.63;1.50;;;7.70;99.90;;;;;;5112260;28;20104;-79
2020/12/21 10:25:59;;;;;;;2.88;1.25;;;8.30;99.90;;;;;;5112582;28;20039;-80
2020/12/21 10:28:25;;;;;;;7.10;1.70;;;;;;;;;;5114668;28;20438;-80
2020/12/21 10:30:52;;;;;;;4.50;1.65;;;8.70;99.90;;;;;;5117245;28;20334;-82
2020/12/21 10:33:18;;;;;;;9.52;1.60;;;;;;;;;;5113332;28;20043;-80
2020/12/21 10:35:44;;;;;;;6.75;2.10;;;8.90;99.90;;;;;;5111710;28;20036;-79
2020/12/21 10:38:09;;;;;;;5.72;2.83;;;8.60;99.90;;;;;;5110976;28;20055;-80
2020/12/21 10:40:35;;;;;;;5.95;2.40;;;8.30;99.90;;;;;;5112320;28;20071;-80
2020/12/21 10:43:01;;;;;;;7.57;2.85;;;7.90;99.90;;;;;;5111020;28;20078;-81
2020/12/21 10:45:26;;;;;;;6.88;3.03;;;7.90;99.90;;;;;;5114623;28;20119;-79
2020/12/21 10:47:53;;;;;;;7.18;2.10;;;7.80;99.90;;;;;;5111245;28;20043;-80
2020/12/21 10:50:18;;;;;;;15.38;7.65;;;7.70;99.90;;;;;;5110920;28;20043;-79
2020/12/21 10:52:44;;;;;;;5.55;2.25;;;7.70;99.90;;;;;;5110610;28;20508;-80
2020/12/21 10:55:10;;;;;;;7.50;2.10;;;7.70;99.90;;;;;;5111448;28;20036;-81
2020/12/21 10:57:36;;;;;;;5.32;1.30;;;7.70;99.90;;;;;;5111501;28;20044;-80
2020/12/21 11:00:02;;;;;;;4.20;1.33;;;7.70;99.90;;;;;;5110190;28;20500;-79
2020/12/21 11:02:28;;;;;;;12.57;3.00;;;7.70;99.90;;;;;;5110886;28;20092;-80
2020/12/21 11:04:54;;;;;;;9.40;2.15;;;7.80;99.90;;;;;;5111085;28;20048;-80
2020/12/21 11:07:20;;;;;;;6.35;2.15;;;7.80;99.90;;;;;;5110408;28;20043;-79
2020/12/21 11:09:45;;;;;;;0.55;0.32;;;7.70;99.90;;;;;;5109081;28;20053;-79
2020/12/21 11:12:11;;;;;;;10.73;4.97;;;7.70;99.90;;;;;;5109805;28;20096;-80
2020/12/21 11:14:37;;;;;;;9.20;3.50;;;;;;;;;;5112135;28;20507;-80
2020/12/21 11:17:03;;;;;;;4.63;2.10;;;7.70;99.90;;;;;;5115548;28;20035;-81
2020/12/21 11:19:29;;;;;;;6.38;2.00;;;;;;;;;;5110710;28;20515;-80
2020/12/21 11:21:55;;;;;;;3.65;1.75;;;7.70;99.90;;;;;;5108905;28;20495;-80
2020/12/21 11:24:21;;;;;;;5.97;2.30;;;7.70;99.90;;;;;;5109809;28;20043;-80
2020/12/21 11:26:50;;;;;;;8.05;2.00;;;7.50;99.90;;;;;;5110920;28;20404;-80
2020/12/21 11:29:15;;;;;;;5.75;1.70;;;7.50;99.90;;;;;;5110356;28;20043;-80
2020/12/21 11:31:41;;;;;;;8.27;2.10;;;7.50;99.90;;;;;;5109422;28;20496;-80
2020/12/21 11:34:07;;;;;;;7.88;2.30;;;7.50;99.90;;;;;;5109844;28;20043;-79
2020/12/21 11:36:32;;;;;;;2.78;1.13;;;7.50;99.90;;;;;;5110544;28;20545;-80
2020/12/21 11:38:59;;;;;;;5.03;1.95;;;7.50;99.90;;;;;;5110772;28;20046;-80
2020/12/21 11:41:28;;;;;;;3.40;1.70;;;7.50;99.90;;;;;;5110482;28;20184;-80
2020/12/21 11:43:54;;;;;;;3.72;1.38;;;;;;;;;;5109936;28;20035;-79
2020/12/21 11:46:20;;;;;;;10.75;2.05;;;7.50;99.90;;;;;;5109891;28;20046;-79
2020/12/21 11:48:45;;;;;;;4.75;1.75;;;7.50;99.90;;;;;;5110567;28;20047;-80
2020/12/21 11:51:16;;;;;;;10.98;1.95;;;7.50;99.90;;;;;;5110776;28;20039;-80
2020/12/21 11:53:42;;;;;;;4.60;1.70;;;7.50;99.90;;;;;;5109823;28;20039;-80
2020/12/21 11:56:14;;;;;;;3.72;1.60;;;7.60;99.90;;;;;;5110838;28;20447;-80
2020/12/21 11:58:40;;;;;;;5.05;1.70;;;7.60;99.90;;;;;;5109307;28;20040;-80
2020/12/21 12:01:05;;;;;;;4.45;2.10;;;7.60;99.90;;;;;;5109453;28;20043;-79
2020/12/21 12:03:31;;;;;;;5.45;1.67;;;7.60;99.90;;;;;;5110357;28;20122;-79
2020/12/21 12:05:57;;;;;;;5.10;2.78;;;7.60;99.90;;;;;;5110322;28;20044;-80
2020/12/21 12:08:23;;;;;;;4.38;1.75;;;7.60;99.90;;;;;;5109495;28;20040;-80
2020/12/21 12:10:49;;;;;;;4.72;1.65;;;7.60;99.90;;;;;;5110721;28;20031;-81
2020/12/21 12:13:15;;;;;;;6.43;2.28;;;7.60;99.90;;;;;;5111341;28;20500;-80
2020/12/21 12:15:41;;;;;;;3.05;1.08;;;7.60;99.90;;;;;;5111093;28;20519;-80
2020/12/21 12:18:06;;;;;;;4.97;1.73;;;7.60;99.90;;;;;;5110069;28;20043;-80
2020/12/21 12:20:32;;;;;;;8.05;2.05;;;7.60;99.90;;;;;;5113670;28;20043;-80
2020/12/21 12:22:57;;;;;;;7.78;2.30;;;7.60;99.90;;;;;;5112252;28;20075;-80
2020/12/21 12:25:23;;;;;;;5.88;2.08;;;7.60;99.90;;;;;;5111518;28;20118;-80
2020/12/21 12:27:49;;;;;;;5.07;1.48;;;7.70;99.90;;;;;;5111326;28;20475;-80
2020/12/21 12:30:15;;;;;;;9.73;4.93;;;7.80;99.90;;;;;;5109085;28;20043;-80
2020/12/21 12:32:41;;;;;;;7.30;2.60;;;7.80;99.90;;;;;;5114812;28;20047;-82
2020/12/21 12:35:06;;;;;;;3.83;1.92;;;7.80;99.90;;;;;;5119668;28;20042;-80
2020/12/21 12:37:32;;;;;;;9.15;1.70;;;;;;;;;;5120068;28;20092;-80
2020/12/21 12:39:58;;;;;;;6.50;2.70;;;7.80;99.90;;;;;;5117994;28;20048;-80
2020/12/21 12:42:23;;;;;;;4.25;1.77;;;7.80;99.90;;;;;;5116551;28;20048;-80
2020/12/21 12:44:49;;;;;;;11.30;5.18;;;7.80;99.90;;;;;;5117788;28;20050;-79
2020/12/21 12:47:16;;;;;;;8.60;1.60;;;7.80;99.90;;;;;;5116481;28;20047;-80
2020/12/21 12:49:41;;;;;;;5.55;1.33;;;7.80;99.90;;;;;;5115200;28;20050;-80
2020/12/21 12:52:07;;;;;;;4.88;1.67;;;7.80;99.90;;;;;;5111719;28;20039;-80
2020/12/21 12:54:33;;;;;;;9.57;1.73;;;7.80;99.90;;;;;;5113334;28;20044;-81
2020/12/21 12:56:59;;;;;;;5.20;1.90;;;7.80;99.90;;;;;;5114944;28;20126;-79
2020/12/21 12:59:25;;;;;;;5.72;2.20;;;7.90;99.90;;;;;;5112219;28;20074;-80
2020/12/21 13:01:50;;;;;;;6.78;2.47;;;7.80;99.90;;;;;;5112251;28;20071;-80